createdAt,value
2023-05-06T00:01:36.950Z,7.80
2023-05-06T00:04:39.774Z,7.93
2023-05-06T00:07:42.671Z,8.20
2023-05-06T00:10:45.303Z,7.70
2023-05-06T00:13:48.107Z,8.00
2023-05-06T00:16:51.220Z,7.95
2023-05-06T00:22:56.136Z,8.32
2023-05-06T00:25:59.135Z,8.23
2023-05-06T00:29:01.611Z,7.22
2023-05-06T00:32:04.638Z,8.63
2023-05-06T00:38:12.309Z,8.95
2023-05-06T00:41:14.985Z,8.20
2023-05-06T00:44:17.389Z,8.05
2023-05-06T00:47:20.064Z,8.70
2023-05-06T00:50:22.859Z,8.88
2023-05-06T00:53:25.449Z,8.32
2023-05-06T00:56:28.268Z,8.20
2023-05-06T00:59:31.402Z,9.38
2023-05-06T01:02:46.187Z,8.60
2023-05-06T01:06:24.333Z,9.18
2023-05-06T01:09:43.132Z,8.93
2023-05-06T01:13:07.363Z,8.80
2023-05-06T01:16:10.025Z,8.73
2023-05-06T01:19:18.166Z,10.20
2023-05-06T01:22:20.777Z,9.25
2023-05-06T01:25:23.708Z,8.60
2023-05-06T01:28:26.357Z,8.82
2023-05-06T01:31:48.206Z,9.25
2023-05-06T01:35:32.811Z,8.73
2023-05-06T01:38:39.883Z,9.27
2023-05-06T01:41:42.546Z,9.32
2023-05-06T01:44:46.141Z,8.30
2023-05-06T01:47:48.611Z,8.68
2023-05-06T01:50:51.125Z,9.18
2023-05-06T01:53:53.634Z,8.32
2023-05-06T01:56:56.170Z,7.97
2023-05-06T01:59:58.832Z,9.30
2023-05-06T02:03:01.707Z,8.15
2023-05-06T02:06:04.913Z,8.48
2023-05-06T02:09:12.725Z,8.90
2023-05-06T02:12:19.428Z,8.57
2023-05-06T02:15:22.340Z,8.75
2023-05-06T02:18:25.517Z,8.90
2023-05-06T02:24:30.645Z,8.85
2023-05-06T02:27:33.135Z,9.30
2023-05-06T02:30:39.245Z,8.77
2023-05-06T02:33:42.097Z,8.45
2023-05-06T02:36:45.959Z,9.18
2023-05-06T02:39:48.388Z,9.23
2023-05-06T02:42:51.053Z,9.27
2023-05-06T02:45:53.988Z,8.85
2023-05-06T02:48:56.488Z,8.85
2023-05-06T02:51:59.361Z,9.27
2023-05-06T02:55:02.202Z,8.52
2023-05-06T02:58:04.856Z,8.38
2023-05-06T03:01:07.472Z,8.57
2023-05-06T03:04:10.376Z,9.32
2023-05-06T03:07:13.336Z,8.57
2023-05-06T03:10:16.660Z,8.98
2023-05-06T03:13:19.287Z,9.15
2023-05-06T03:16:22.631Z,9.25
2023-05-06T03:19:28.413Z,9.35
2023-05-06T03:22:31.079Z,9.48
2023-05-06T03:25:34.266Z,9.15
2023-05-06T03:28:37.331Z,8.38
2023-05-06T03:31:42.001Z,9.10
2023-05-06T03:34:45.310Z,8.55
2023-05-06T03:37:52.612Z,8.50
2023-05-06T03:40:59.211Z,8.68
2023-05-06T03:44:02.834Z,8.13
2023-05-06T03:47:06.242Z,8.52
2023-05-06T03:50:10.219Z,9.65
2023-05-06T03:53:14.660Z,9.38
2023-05-06T03:56:22.084Z,8.63
2023-05-06T03:59:27.679Z,8.85
2023-05-06T04:02:35.175Z,9.30
2023-05-06T04:05:38.800Z,9.43
2023-05-06T04:11:43.504Z,9.00
2023-05-06T04:14:49.369Z,8.98
2023-05-06T04:17:52.661Z,8.93
2023-05-06T04:20:56.675Z,10.02
2023-05-06T04:24:00.893Z,9.00
2023-05-06T04:27:09.459Z,8.57
2023-05-06T04:30:13.535Z,8.45
2023-05-06T04:33:16.618Z,8.68
2023-05-06T04:36:20.208Z,8.48
2023-05-06T04:39:39.514Z,9.13
2023-05-06T04:42:43.412Z,9.40
2023-05-06T04:45:52.979Z,8.90
2023-05-06T04:49:00.588Z,9.00
2023-05-06T04:52:03.652Z,9.25
2023-05-06T04:55:07.318Z,9.35
2023-05-06T04:58:12.656Z,9.68
2023-05-06T05:01:15.685Z,9.48
2023-05-06T05:07:21.188Z,9.15
2023-05-06T05:10:23.681Z,9.57
2023-05-06T05:13:27.920Z,10.10
2023-05-06T05:16:31.828Z,10.27
2023-05-06T05:19:36.608Z,9.55
2023-05-06T05:22:39.318Z,9.07
2023-05-06T05:25:42.031Z,10.02
2023-05-06T05:28:44.677Z,10.05
2023-05-06T05:31:48.779Z,10.35
2023-05-06T05:34:51.721Z,10.38
2023-05-06T05:37:54.848Z,10.32
2023-05-06T05:40:57.969Z,10.07
2023-05-06T05:44:01.500Z,10.27
2023-05-06T05:47:05.098Z,10.18
2023-05-06T05:50:09.216Z,10.38
2023-05-06T05:53:13.017Z,10.32
2023-05-06T05:56:16.804Z,10.65
2023-05-06T05:59:20.563Z,9.70
2023-05-06T06:02:26.419Z,9.70
2023-05-06T06:05:29.069Z,10.25
2023-05-06T06:08:33.526Z,10.23
2023-05-06T06:11:37.616Z,11.65
2023-05-06T06:14:41.867Z,9.43
2023-05-06T06:17:45.255Z,10.95
2023-05-06T06:20:48.574Z,9.32
2023-05-06T06:23:51.823Z,10.43
2023-05-06T06:26:55.525Z,9.82
2023-05-06T06:29:58.555Z,10.00
2023-05-06T06:36:04.697Z,9.48
2023-05-06T06:39:07.636Z,9.75
2023-05-06T06:45:24.661Z,8.85
2023-05-06T06:48:27.245Z,9.80
2023-05-06T06:51:29.874Z,10.68
2023-05-06T06:54:32.463Z,9.82
2023-05-06T06:57:35.023Z,9.98
2023-05-06T07:00:37.554Z,9.45
2023-05-06T07:03:40.405Z,9.95
2023-05-06T07:06:43.105Z,9.90
2023-05-06T07:12:48.353Z,9.57
2023-05-06T07:18:53.920Z,8.93
2023-05-06T07:21:57.029Z,8.55
2023-05-06T07:24:59.773Z,8.68
2023-05-06T07:31:05.645Z,8.73
2023-05-06T07:34:08.441Z,8.38
2023-05-06T07:40:13.714Z,9.50
2023-05-06T07:46:18.748Z,8.13
2023-05-06T07:52:24.531Z,7.65
2023-05-06T07:55:28.458Z,9.95
2023-05-06T07:58:31.600Z,10.60
2023-05-06T08:01:34.232Z,9.45
2023-05-06T08:04:37.103Z,9.02
2023-05-06T08:07:41.470Z,8.65
2023-05-06T08:10:44.364Z,7.75
2023-05-06T08:13:47.351Z,7.30
2023-05-06T08:16:50.480Z,7.65
2023-05-06T08:19:53.203Z,8.45
2023-05-06T08:25:59.264Z,7.35
2023-05-06T08:29:03.250Z,8.88
2023-05-06T08:32:06.755Z,7.97
2023-05-06T08:35:10.465Z,7.13
2023-05-06T08:38:13.518Z,6.80
2023-05-06T08:44:19.362Z,6.93
2023-05-06T08:47:22.188Z,7.50
2023-05-06T08:50:24.957Z,6.50
2023-05-06T08:53:27.535Z,5.95
2023-05-06T08:56:33.621Z,7.43
2023-05-06T08:59:36.304Z,7.07
2023-05-06T09:02:42.184Z,7.47
2023-05-06T09:05:45.735Z,7.30
2023-05-06T09:08:48.544Z,6.72
2023-05-06T09:11:54.202Z,7.25
2023-05-06T09:14:57.206Z,6.50
2023-05-06T09:17:59.820Z,6.78
2023-05-06T09:21:03.880Z,7.13
2023-05-06T09:24:07.389Z,6.97
2023-05-06T09:27:10.918Z,7.82
2023-05-06T09:30:14.601Z,7.30
2023-05-06T09:33:17.246Z,7.60
2023-05-06T09:36:20.198Z,6.68
2023-05-06T09:39:26.820Z,6.35
2023-05-06T09:42:29.942Z,5.90
2023-05-06T09:45:33.229Z,6.47
2023-05-06T09:48:36.517Z,6.80
2023-05-06T09:51:39.597Z,5.75
2023-05-06T09:54:42.324Z,5.97
2023-05-06T09:57:44.906Z,6.18
2023-05-06T10:00:47.447Z,5.93
2023-05-06T10:03:51.893Z,5.53
2023-05-06T10:06:56.628Z,5.80
2023-05-06T10:09:59.108Z,5.00
2023-05-06T10:13:04.726Z,5.53
2023-05-06T10:16:07.978Z,5.18
2023-05-06T10:19:10.611Z,5.00
2023-05-06T10:22:40.598Z,4.22
2023-05-06T10:25:44.289Z,4.55
2023-05-06T10:28:47.045Z,4.60
2023-05-06T10:31:54.240Z,6.22
2023-05-06T10:34:57.241Z,5.82
2023-05-06T10:37:59.700Z,4.40
2023-05-06T10:41:02.407Z,5.20
2023-05-06T10:44:06.326Z,4.65
2023-05-06T10:47:09.469Z,4.97
2023-05-06T10:50:27.792Z,4.95
2023-05-06T10:54:05.717Z,4.53
2023-05-06T10:57:09.261Z,4.68
2023-05-06T11:00:13.314Z,4.97
2023-05-06T11:03:18.827Z,4.65
2023-05-06T11:06:34.433Z,4.70
2023-05-06T11:10:00.324Z,5.05
2023-05-06T11:13:22.345Z,4.95
2023-05-06T11:16:46.844Z,5.18
2023-05-06T11:19:49.396Z,4.95
2023-05-06T11:22:52.744Z,5.30
2023-05-06T11:25:56.580Z,5.72
2023-05-06T11:28:59.630Z,6.45
2023-05-06T11:32:02.212Z,5.82
2023-05-06T11:35:05.257Z,5.60
2023-05-06T11:38:07.901Z,5.85
2023-05-06T11:41:10.903Z,5.47
2023-05-06T11:44:24.119Z,5.93
2023-05-06T11:47:26.557Z,5.57
2023-05-06T11:50:29.174Z,5.55
2023-05-06T11:53:31.769Z,6.15
2023-05-06T11:56:51.003Z,6.53
2023-05-06T11:59:54.589Z,6.10
2023-05-06T12:02:57.370Z,6.57
2023-05-06T12:05:59.903Z,6.97
2023-05-06T12:09:07.549Z,6.47
2023-05-06T12:12:10.539Z,6.32
2023-05-06T12:15:13.089Z,5.78
2023-05-06T12:18:15.599Z,5.72
2023-05-06T12:21:22.691Z,5.43
2023-05-06T12:24:29.380Z,5.50
2023-05-06T12:27:33.287Z,5.15
2023-05-06T12:30:35.829Z,4.95
2023-05-06T12:33:45.587Z,5.38
2023-05-06T12:36:48.158Z,5.75
2023-05-06T12:39:50.847Z,5.65
2023-05-06T12:42:56.307Z,5.22
2023-05-06T12:46:08.223Z,5.10
2023-05-06T12:49:10.775Z,6.40
2023-05-06T12:52:13.345Z,5.60
2023-05-06T12:55:16.052Z,5.05
2023-05-06T12:58:19.001Z,5.07
2023-05-06T13:01:22.248Z,5.40
2023-05-06T13:04:27.447Z,5.30
2023-05-06T13:07:30.763Z,5.15
2023-05-06T13:10:33.556Z,4.75
2023-05-06T13:13:36.209Z,5.30
2023-05-06T13:16:38.773Z,5.00
2023-05-06T13:19:41.390Z,5.70
2023-05-06T13:22:54.261Z,5.28
2023-05-06T13:26:04.307Z,5.82
2023-05-06T13:29:07.957Z,5.10
2023-05-06T13:32:10.678Z,4.70
2023-05-06T13:35:13.544Z,4.45
2023-05-06T13:38:16.189Z,4.82
2023-05-06T13:41:19.707Z,4.95
2023-05-06T13:44:22.886Z,4.72
2023-05-06T13:47:26.977Z,4.38
2023-05-06T13:50:30.610Z,4.43
2023-05-06T13:53:33.854Z,4.18
2023-05-06T13:56:37.066Z,4.88
2023-05-06T13:59:39.662Z,4.63
2023-05-06T14:02:43.094Z,6.05
2023-05-06T14:05:46.226Z,5.82
2023-05-06T14:08:48.650Z,6.28
2023-05-06T14:11:51.926Z,5.43
2023-05-06T14:14:54.385Z,6.28
2023-05-06T14:17:57.909Z,6.05
2023-05-06T14:21:00.552Z,5.60
2023-05-06T14:24:04.627Z,5.82
2023-05-06T14:27:08.313Z,5.57
2023-05-06T14:30:11.099Z,5.95
2023-05-06T14:33:13.853Z,6.40
2023-05-06T14:36:19.913Z,6.15
2023-05-06T14:39:22.291Z,6.20
2023-05-06T14:42:24.728Z,6.55
2023-05-06T14:45:27.402Z,6.18
2023-05-06T14:48:31.700Z,6.63
2023-05-06T14:51:34.767Z,6.25
2023-05-06T14:54:58.190Z,6.82
2023-05-06T14:58:00.630Z,6.28
2023-05-06T15:01:03.263Z,6.32
2023-05-06T15:04:05.921Z,7.32
2023-05-06T15:07:08.638Z,6.18
2023-05-06T15:13:16.875Z,6.28
2023-05-06T15:16:19.516Z,6.43
2023-05-06T15:19:22.176Z,6.35
2023-05-06T15:25:35.810Z,6.95
2023-05-06T15:28:39.312Z,6.72
2023-05-06T15:31:44.189Z,6.55
2023-05-06T15:34:46.739Z,6.80
2023-05-06T15:37:49.317Z,8.73
2023-05-06T15:40:52.261Z,7.30
2023-05-06T15:43:56.351Z,8.15
2023-05-06T15:46:58.756Z,7.30
2023-05-06T15:50:01.727Z,6.72
2023-05-06T15:53:04.303Z,6.88
2023-05-06T15:56:17.246Z,6.32
2023-05-06T15:59:21.211Z,7.20
2023-05-06T16:05:29.963Z,7.20
2023-05-06T16:08:32.637Z,7.45
2023-05-06T16:11:35.202Z,7.43
2023-05-06T16:14:38.120Z,8.15
2023-05-06T16:17:41.127Z,6.90
2023-05-06T16:20:43.710Z,7.68
2023-05-06T16:26:48.942Z,7.57
2023-05-06T16:29:51.628Z,8.10
2023-05-06T16:32:54.160Z,8.57
2023-05-06T16:35:57.354Z,8.23
2023-05-06T16:38:59.912Z,8.75
2023-05-06T16:42:02.632Z,8.18
2023-05-06T16:48:08.293Z,7.40
2023-05-06T16:51:12.321Z,7.60
2023-05-06T16:54:14.929Z,7.75
2023-05-06T16:57:17.759Z,8.18
2023-05-06T17:00:21.135Z,7.70
2023-05-06T17:03:24.238Z,7.97
2023-05-06T17:06:32.104Z,7.85
2023-05-06T17:09:34.802Z,7.97
2023-05-06T17:15:47.729Z,7.07
2023-05-06T17:18:53.738Z,8.23
2023-05-06T17:21:59.522Z,7.28
2023-05-06T17:25:02.800Z,8.45
2023-05-06T17:28:05.352Z,8.10
2023-05-06T17:34:10.270Z,8.30
2023-05-06T17:37:12.914Z,7.78
2023-05-06T17:40:15.370Z,7.20
2023-05-06T17:43:17.885Z,8.13
2023-05-06T17:46:20.719Z,8.38
2023-05-06T17:52:26.687Z,7.55
2023-05-06T17:55:29.410Z,8.57
2023-05-06T17:58:32.024Z,8.30
2023-05-06T18:01:34.994Z,9.35
2023-05-06T18:04:37.576Z,8.65
2023-05-06T18:10:45.575Z,8.77
2023-05-06T18:13:48.214Z,8.75
2023-05-06T18:19:53.730Z,8.75
2023-05-06T18:22:56.448Z,8.65
2023-05-06T18:25:59.366Z,8.45
2023-05-06T18:29:04.145Z,8.10
2023-05-06T18:32:06.858Z,7.95
2023-05-06T18:35:10.961Z,8.68
2023-05-06T18:38:15.184Z,8.70
2023-05-06T18:41:18.031Z,8.27
2023-05-06T18:44:20.928Z,9.45
2023-05-06T18:47:25.750Z,10.25
2023-05-06T18:50:28.557Z,9.38
2023-05-06T18:56:33.608Z,9.98
2023-05-06T18:59:36.319Z,10.23
2023-05-06T19:02:39.105Z,12.05
2023-05-06T19:05:41.838Z,11.95
2023-05-06T19:11:46.821Z,10.48
2023-05-06T19:14:50.717Z,10.73
2023-05-06T19:17:54.026Z,10.13
2023-05-06T19:20:56.773Z,10.80
2023-05-06T19:27:03.818Z,10.00
2023-05-06T19:30:07.471Z,10.95
2023-05-06T19:33:10.033Z,11.02
2023-05-06T19:36:12.592Z,10.32
2023-05-06T19:39:16.449Z,11.05
2023-05-06T19:42:19.352Z,10.52
2023-05-06T19:45:21.912Z,10.63
2023-05-06T19:48:24.532Z,12.68
2023-05-06T19:51:28.383Z,14.32
2023-05-06T19:54:31.040Z,11.02
2023-05-06T19:57:33.994Z,14.07
2023-05-06T20:00:36.497Z,11.23
2023-05-06T20:03:39.353Z,11.23
2023-05-06T20:06:42.118Z,12.60
2023-05-06T20:09:45.675Z,11.15
2023-05-06T20:12:48.365Z,10.55
2023-05-06T20:18:53.684Z,10.98
2023-05-06T20:21:57.289Z,12.20
2023-05-06T20:25:14.516Z,12.52
2023-05-06T20:28:18.593Z,12.32
2023-05-06T20:31:21.407Z,12.32
2023-05-06T20:34:26.786Z,11.57
2023-05-06T20:37:30.935Z,11.98
2023-05-06T20:40:35.750Z,12.38
2023-05-06T20:43:38.656Z,11.55
2023-05-06T20:46:41.439Z,11.57
2023-05-06T20:49:44.344Z,11.52
2023-05-06T20:52:47.101Z,12.32
2023-05-06T20:55:49.850Z,11.60
2023-05-06T20:58:52.923Z,12.82
2023-05-06T21:01:56.377Z,13.15
2023-05-06T21:04:59.515Z,12.27
2023-05-06T21:08:02.055Z,11.75
2023-05-06T21:11:05.459Z,12.30
2023-05-06T21:14:08.188Z,12.63
2023-05-06T21:17:10.656Z,12.48
2023-05-06T21:20:13.430Z,12.43
2023-05-06T21:23:16.360Z,13.30
2023-05-06T21:26:19.077Z,12.60
2023-05-06T21:29:21.649Z,13.55
2023-05-06T21:32:24.443Z,12.15
2023-05-06T21:35:27.030Z,12.32
2023-05-06T21:38:29.832Z,12.35
2023-05-06T21:41:35.360Z,12.82
2023-05-06T21:44:37.873Z,12.25
2023-05-06T21:47:40.907Z,12.68
2023-05-06T21:50:43.499Z,13.45
2023-05-06T21:53:50.580Z,13.05
2023-05-06T21:56:53.087Z,13.18
2023-05-06T21:59:55.540Z,13.13
2023-05-06T22:02:58.791Z,12.80
2023-05-06T22:06:01.344Z,13.80
2023-05-06T22:09:08.752Z,13.73
2023-05-06T22:12:12.738Z,13.82
2023-05-06T22:15:16.247Z,12.95
2023-05-06T22:18:18.981Z,13.35
2023-05-06T22:21:21.941Z,14.45
2023-05-06T22:24:26.165Z,16.13
2023-05-06T22:27:29.106Z,14.05
2023-05-06T22:33:34.997Z,15.25
2023-05-06T22:39:39.608Z,14.50
2023-05-06T22:42:42.116Z,14.32
2023-05-06T22:45:44.659Z,17.80
2023-05-06T22:48:47.135Z,14.57
2023-05-06T22:51:49.616Z,14.38
2023-05-06T22:54:52.614Z,14.32
2023-05-06T22:57:55.162Z,14.43
2023-05-06T23:00:57.970Z,15.60
2023-05-06T23:04:00.671Z,14.32
2023-05-06T23:07:03.393Z,14.68
2023-05-06T23:10:06.811Z,13.80
2023-05-06T23:13:09.322Z,15.48
2023-05-06T23:16:12.053Z,14.52
2023-05-06T23:22:16.541Z,12.55
2023-05-06T23:25:19.785Z,13.93
2023-05-06T23:28:22.470Z,13.80
2023-05-06T23:31:25.114Z,13.80
2023-05-06T23:37:29.958Z,12.88
2023-05-06T23:40:32.443Z,13.30
2023-05-06T23:43:34.915Z,13.75
2023-05-06T23:46:37.455Z,14.25
2023-05-06T23:49:39.936Z,13.13
2023-05-06T23:52:42.489Z,15.20
2023-05-06T23:55:44.905Z,13.48
2023-05-06T23:58:47.651Z,13.43
